Time,TemperatureF,DewpointF,PressureIn,WindDirection,WindDirectionDegrees,WindSpeedMPH,WindSpeedGustMPH,Humidity,HourlyPrecipIn,Conditions,Clouds,dailyrainin,SolarRadiationWatts/m^2,SoftwareType,DateUTC
2013-03-25 00:10:00,70.1,69.0,29.73,WNW,294,2.0,-999.0,95,-99.99,,,0.00,0,weatherlink.com 1.10,2013-03-25 04:10:00,
2013-03-25 00:25:00,69.8,69.0,29.74,West,279,3.0,-999.0,96,-99.99,,,0.00,0,weatherlink.com 1.10,2013-03-25 04:25:00,
2013-03-25 00:40:00,69.1,68.0,29.74,WSW,256,0.0,-999.0,95,-99.99,,,0.00,0,weatherlink.com 1.10,2013-03-25 04:40:00,
2013-03-25 00:55:00,68.6,67.0,29.73,West,259,0.0,-999.0,95,-99.99,,,0.00,0,weatherlink.com 1.10,2013-03-25 04:55:00,
2013-03-25 01:09:00,68.1,67.0,29.73,West,259,0.0,-999.0,95,-99.99,,,0.00,0,weatherlink.com 1.10,2013-03-25 05:09:00,
2013-03-25 01:24:00,67.8,67.0,29.73,West,259,0.0,-999.0,96,-99.99,,,0.00,0,weatherlink.com 1.10,2013-03-25 05:24:00,
2013-03-25 01:39:00,67.8,67.0,29.73,SW,226,0.0,-999.0,97,-99.99,,,0.00,0,weatherlink.com 1.10,2013-03-25 05:39:00,
2013-03-25 01:54:00,67.6,67.0,29.73,SW,226,0.0,-999.0,98,-99.99,,,0.00,0,weatherlink.com 1.10,2013-03-25 05:54:00,
2013-03-25 02:09:00,67.4,67.0,29.74,West,259,2.0,-999.0,98,-99.99,,,0.00,0,weatherlink.com 1.10,2013-03-25 06:09:00,
2013-03-25 02:24:00,66.8,66.0,29.74,WSW,251,2.0,-999.0,98,-99.99,,,0.00,0,weatherlink.com 1.10,2013-03-25 06:24:00,
2013-03-25 02:39:00,66.4,66.0,29.74,West,279,0.0,-999.0,98,-99.99,,,0.00,0,weatherlink.com 1.10,2013-03-25 06:39:00,
2013-03-25 02:54:00,66.1,66.0,29.75,NW,313,4.0,-999.0,98,-99.99,,,0.00,0,weatherlink.com 1.10,2013-03-25 06:54:00,
2013-03-25 03:09:00,65.8,65.0,29.74,West,277,2.0,-999.0,98,-99.99,,,0.00,0,weatherlink.com 1.10,2013-03-25 07:09:00,
2013-03-25 03:24:00,65.5,65.0,29.74,WNW,299,0.0,-999.0,98,-99.99,,,0.00,0,weatherlink.com 1.10,2013-03-25 07:24:00,
2013-03-25 03:39:00,65.5,65.0,29.74,West,259,0.0,-999.0,97,-99.99,,,0.00,0,weatherlink.com 1.10,2013-03-25 07:39:00,
2013-03-25 03:54:00,65.2,64.0,29.74,West,260,0.0,-999.0,97,-99.99,,,0.00,0,weatherlink.com 1.10,2013-03-25 07:54:00,
2013-03-25 04:09:00,65.0,64.0,29.74,West,275,2.0,-999.0,97,-99.99,,,0.00,0,weatherlink.com 1.10,2013-03-25 08:09:00,
2013-03-25 04:24:00,64.7,64.0,29.74,WNW,288,3.0,-999.0,97,-99.99,,,0.00,0,weatherlink.com 1.10,2013-03-25 08:24:00,
2013-03-25 04:39:00,64.5,63.0,29.75,West,268,0.0,-999.0,96,-99.99,,,0.00,0,weatherlink.com 1.10,2013-03-25 08:39:00,
2013-03-25 04:54:00,64.0,63.0,29.75,WSW,256,0.0,-999.0,96,-99.99,,,0.00,0,weatherlink.com 1.10,2013-03-25 08:54:00,
2013-03-25 05:09:00,63.7,63.0,29.75,NNW,327,1.0,-999.0,96,-99.99,,,0.00,0,weatherlink.com 1.10,2013-03-25 09:09:00,
2013-03-25 05:24:00,63.2,62.0,29.75,West,278,5.0,-999.0,96,-99.99,,,0.00,0,weatherlink.com 1.10,2013-03-25 09:24:00,
2013-03-25 05:39:00,63.1,61.0,29.76,WNW,290,3.0,-999.0,94,-99.99,,,0.00,0,weatherlink.com 1.10,2013-03-25 09:39:00,
2013-03-25 05:54:00,62.6,61.0,29.76,WNW,290,3.0,-999.0,94,-99.99,,,0.00,0,weatherlink.com 1.10,2013-03-25 09:54:00,
2013-03-25 06:09:00,62.1,60.0,29.77,WNW,288,3.0,-999.0,94,-99.99,,,0.00,0,weatherlink.com 1.10,2013-03-25 10:09:00,
2013-03-25 06:24:00,61.8,60.0,29.77,West,273,0.0,-999.0,94,-99.99,,,0.00,0,weatherlink.com 1.10,2013-03-25 10:24:00,
2013-03-25 06:39:00,61.6,60.0,29.78,NW,321,0.0,-999.0,94,-99.99,,,0.00,0,weatherlink.com 1.10,2013-03-25 10:39:00,
2013-03-25 06:54:00,61.3,60.0,29.78,WNW,297,3.0,-999.0,94,-99.99,,,0.00,0,weatherlink.com 1.10,2013-03-25 10:54:00,
2013-03-25 07:09:00,61.0,59.0,29.79,WNW,290,0.0,-999.0,94,-99.99,,,0.00,0,weatherlink.com 1.10,2013-03-25 11:09:00,
2013-03-25 07:24:00,60.9,59.0,29.80,WNW,282,2.0,-999.0,94,-99.99,,,0.00,0,weatherlink.com 1.10,2013-03-25 11:24:00,
2013-03-25 07:39:00,60.1,57.0,29.81,NW,319,3.0,-999.0,90,-99.99,,,0.00,16,weatherlink.com 1.10,2013-03-25 11:39:00,
2013-03-25 07:54:00,59.6,55.0,29.81,North,355,0.0,-999.0,85,-99.99,,,0.00,30,weatherlink.com 1.10,2013-03-25 11:54:00,
2013-03-25 08:09:00,59.5,52.0,29.83,NW,307,3.0,-999.0,77,-99.99,,,0.00,47,weatherlink.com 1.10,2013-03-25 12:09:00,
2013-03-25 08:24:00,59.8,52.0,29.84,NW,314,9.0,-999.0,75,-99.99,,,0.00,125,weatherlink.com 1.10,2013-03-25 12:24:00,
2013-03-25 08:39:00,60.1,52.0,29.84,NW,307,3.0,-999.0,74,-99.99,,,0.00,171,weatherlink.com 1.10,2013-03-25 12:39:00,
2013-03-25 08:54:00,60.5,51.0,29.85,WNW,293,4.0,-999.0,71,-99.99,,,0.00,216,weatherlink.com 1.10,2013-03-25 12:54:00,
2013-03-25 09:09:00,61.2,52.0,29.86,SW,234,9.0,-999.0,71,-99.99,,,0.00,267,weatherlink.com 1.10,2013-03-25 13:09:00,
2013-03-25 09:25:00,61.6,50.0,29.86,NNE,18,0.0,-999.0,65,-99.99,,,0.00,332,weatherlink.com 1.10,2013-03-25 13:25:00,
2013-03-25 09:39:00,62.3,47.0,29.88,NNW,332,1.0,-999.0,58,-99.99,,,0.00,387,weatherlink.com 1.10,2013-03-25 13:39:00,
2013-03-25 09:54:00,62.7,46.0,29.88,East,82,0.0,-999.0,54,-99.99,,,0.00,439,weatherlink.com 1.10,2013-03-25 13:54:00,
2013-03-25 10:09:00,63.5,48.0,29.89,West,281,2.0,-999.0,58,-99.99,,,0.00,489,weatherlink.com 1.10,2013-03-25 14:09:00,
2013-03-25 10:24:00,63.9,48.0,29.90,NNW,335,8.0,-999.0,57,-99.99,,,0.00,540,weatherlink.com 1.10,2013-03-25 14:24:00,
2013-03-25 10:39:00,64.2,48.0,29.90,WNW,302,2.0,-999.0,56,-99.99,,,0.00,591,weatherlink.com 1.10,2013-03-25 14:39:00,
2013-03-25 10:54:00,64.8,46.0,29.91,WNW,302,5.0,-999.0,50,-99.99,,,0.00,633,weatherlink.com 1.10,2013-03-25 14:54:00,
2013-03-25 11:09:00,64.8,47.0,29.92,WSW,248,2.0,-999.0,53,-99.99,,,0.00,682,weatherlink.com 1.10,2013-03-25 15:09:00,
2013-03-25 11:24:00,65.2,47.0,29.92,NNW,333,0.0,-999.0,52,-99.99,,,0.00,722,weatherlink.com 1.10,2013-03-25 15:24:00,
2013-03-25 11:39:00,66.6,47.0,29.91,NNW,342,2.0,-999.0,50,-99.99,,,0.00,759,weatherlink.com 1.10,2013-03-25 15:39:00,
2013-03-25 11:54:00,67.1,47.0,29.92,WNW,285,0.0,-999.0,49,-99.99,,,0.00,796,weatherlink.com 1.10,2013-03-25 15:54:00,
2013-03-25 12:24:00,67.6,43.0,29.92,NW,314,4.0,-999.0,41,-99.99,,,0.00,854,weatherlink.com 1.10,2013-03-25 16:24:00,
2013-03-25 12:39:00,68.1,43.0,29.92,West,261,0.0,-999.0,41,-99.99,,,0.00,877,weatherlink.com 1.10,2013-03-25 16:39:00,
2013-03-25 12:54:00,68.8,34.0,29.92,WNW,283,4.0,-999.0,28,-99.99,,,0.00,911,weatherlink.com 1.10,2013-03-25 16:54:00,
2013-03-25 13:10:00,68.6,32.0,29.91,NNW,348,2.0,-999.0,26,-99.99,,,0.00,923,weatherlink.com 1.10,2013-03-25 17:10:00,
2013-03-25 13:24:00,69.3,33.0,29.90,WNW,293,4.0,-999.0,26,-99.99,,,0.00,930,weatherlink.com 1.10,2013-03-25 17:24:00,
2013-03-25 13:39:00,70.3,36.0,29.89,NW,318,2.0,-999.0,29,-99.99,,,0.00,933,weatherlink.com 1.10,2013-03-25 17:39:00,
2013-03-25 13:55:00,71.3,36.0,29.88,ENE,61,0.0,-999.0,27,-99.99,,,0.00,933,weatherlink.com 1.10,2013-03-25 17:55:00,
2013-03-25 14:10:00,70.9,32.0,29.88,NNW,329,7.0,-999.0,24,-99.99,,,0.00,926,weatherlink.com 1.10,2013-03-25 18:10:00,
2013-03-25 14:25:00,71.1,25.0,29.88,NNW,345,7.0,-999.0,18,-99.99,,,0.00,923,weatherlink.com 1.10,2013-03-25 18:25:00,
2013-03-25 14:55:00,70.8,34.0,29.87,West,278,9.0,-999.0,26,-99.99,,,0.00,888,weatherlink.com 1.10,2013-03-25 18:55:00,
2013-03-25 15:10:00,70.9,34.0,29.88,WNW,297,8.0,-999.0,26,-99.99,,,0.00,870,weatherlink.com 1.10,2013-03-25 19:10:00,
2013-03-25 15:25:00,69.3,29.0,29.88,WNW,296,3.0,-999.0,22,-99.99,,,0.00,838,weatherlink.com 1.10,2013-03-25 19:25:00,
2013-03-25 15:40:00,69.9,34.0,29.88,North,5,4.0,-999.0,27,-99.99,,,0.00,810,weatherlink.com 1.10,2013-03-25 19:40:00,
2013-03-25 15:55:00,69.1,33.0,29.88,NW,306,8.0,-999.0,26,-99.99,,,0.00,777,weatherlink.com 1.10,2013-03-25 19:55:00,
2013-03-25 16:10:00,68.9,34.0,29.88,NW,305,6.0,-999.0,28,-99.99,,,0.00,738,weatherlink.com 1.10,2013-03-25 20:10:00,
2013-03-25 16:25:00,68.6,32.0,29.88,WNW,299,6.0,-999.0,26,-99.99,,,0.00,701,weatherlink.com 1.10,2013-03-25 20:25:00,
2013-03-25 16:40:00,68.3,32.0,29.88,WNW,286,6.0,-999.0,26,-99.99,,,0.00,650,weatherlink.com 1.10,2013-03-25 20:40:00,
2013-03-25 16:55:00,68.8,33.0,29.88,West,273,7.0,-999.0,27,-99.99,,,0.00,608,weatherlink.com 1.10,2013-03-25 20:55:00,
2013-03-25 17:10:00,68.3,32.0,29.88,WNW,294,11.0,-999.0,26,-99.99,,,0.00,555,weatherlink.com 1.10,2013-03-25 21:10:00,
2013-03-25 17:25:00,68.3,32.0,29.88,NNW,342,4.0,-999.0,26,-99.99,,,0.00,503,weatherlink.com 1.10,2013-03-25 21:25:00,
2013-03-25 17:40:00,67.8,31.0,29.89,WNW,296,11.0,-999.0,25,-99.99,,,0.00,446,weatherlink.com 1.10,2013-03-25 21:40:00,
2013-03-25 17:55:00,66.6,28.0,29.89,NW,311,6.0,-999.0,23,-99.99,,,0.00,390,weatherlink.com 1.10,2013-03-25 21:55:00,
2013-03-25 18:10:00,66.3,29.0,29.90,NW,319,9.0,-999.0,25,-99.99,,,0.00,329,weatherlink.com 1.10,2013-03-25 22:10:00,
2013-03-25 18:25:00,63.7,35.0,29.90,NW,311,2.0,-999.0,34,-99.99,,,0.00,271,weatherlink.com 1.10,2013-03-25 22:25:00,
2013-03-25 18:40:00,62.9,34.0,29.91,WSW,252,4.0,-999.0,34,-99.99,,,0.00,204,weatherlink.com 1.10,2013-03-25 22:40:00,
2013-03-25 18:55:00,61.8,34.0,29.91,NW,308,7.0,-999.0,35,-99.99,,,0.00,49,weatherlink.com 1.10,2013-03-25 22:55:00,
2013-03-25 19:08:00,60.5,35.0,29.92,WNW,286,3.0,-999.0,38,-99.99,,,0.00,35,weatherlink.com 1.10,2013-03-25 23:08:00,
2013-03-25 19:40:00,58.3,37.0,29.94,WSW,252,1.0,-999.0,46,-99.99,,,0.00,5,weatherlink.com 1.10,2013-03-25 23:40:00,
2013-03-25 19:55:00,56.6,40.0,29.94,WSW,253,6.0,-999.0,55,-99.99,,,0.00,0,weatherlink.com 1.10,2013-03-25 23:55:00,
2013-03-25 20:08:00,55.3,38.0,29.95,NW,322,2.0,-999.0,52,-99.99,,,0.00,0,weatherlink.com 1.10,2013-03-26 00:08:00,
2013-03-25 20:25:00,54.4,38.0,29.95,WNW,293,0.0,-999.0,55,-99.99,,,0.00,0,weatherlink.com 1.10,2013-03-26 00:25:00,
2013-03-25 20:40:00,53.2,39.0,29.96,WNW,293,1.0,-999.0,59,-99.99,,,0.00,0,weatherlink.com 1.10,2013-03-26 00:40:00,
2013-03-25 20:55:00,52.5,39.0,29.96,West,263,0.0,-999.0,60,-99.99,,,0.00,0,weatherlink.com 1.10,2013-03-26 00:55:00,
2013-03-25 21:10:00,51.9,41.0,29.97,WNW,297,0.0,-999.0,66,-99.99,,,0.00,0,weatherlink.com 1.10,2013-03-26 01:10:00,
2013-03-25 21:25:00,52.0,40.0,29.98,WNW,291,0.0,-999.0,63,-99.99,,,0.00,0,weatherlink.com 1.10,2013-03-26 01:25:00,
2013-03-25 21:40:00,51.7,40.0,30.00,NNW,327,2.0,-999.0,65,-99.99,,,0.00,0,weatherlink.com 1.10,2013-03-26 01:40:00,
2013-03-25 21:54:00,52.0,41.0,30.01,WNW,302,0.0,-999.0,67,-99.99,,,0.00,0,weatherlink.com 1.10,2013-03-26 01:54:00,
2013-03-25 22:09:00,52.0,41.0,30.01,WNW,294,0.0,-999.0,67,-99.99,,,0.00,0,weatherlink.com 1.10,2013-03-26 02:09:00,
2013-03-25 22:25:00,52.2,41.0,30.02,West,267,1.0,-999.0,67,-99.99,,,0.00,0,weatherlink.com 1.10,2013-03-26 02:25:00,
2013-03-25 22:40:00,51.9,42.0,30.02,WNW,296,1.0,-999.0,69,-99.99,,,0.00,0,weatherlink.com 1.10,2013-03-26 02:40:00,
2013-03-25 22:55:00,51.9,42.0,30.02,WNW,299,0.0,-999.0,70,-99.99,,,0.00,0,weatherlink.com 1.10,2013-03-26 02:55:00,
2013-03-25 23:10:00,51.4,43.0,30.02,NW,317,0.0,-999.0,72,-99.99,,,0.00,0,weatherlink.com 1.10,2013-03-26 03:10:00,
2013-03-25 23:24:00,51.1,43.0,30.03,NW,315,0.0,-999.0,74,-99.99,,,0.00,0,weatherlink.com 1.10,2013-03-26 03:24:00,
2013-03-25 23:39:00,51.4,43.0,30.03,WNW,296,0.0,-999.0,74,-99.99,,,0.00,0,weatherlink.com 1.10,2013-03-26 03:39:00,
2013-03-25 23:54:00,51.4,44.0,30.02,NW,321,2.0,-999.0,75,-99.99,,,0.00,0,weatherlink.com 1.10,2013-03-26 03:54:00,